Авиационная погода в Ботсфьорде

Регион: 
Погода METAR: 
ENBS 162050Z 14017KT 9999 7000NE VCSH SCT008 BKN022 01/M01 Q1011
Время наблюдения
2021-05-16T20:50:00Z
Температура C
1.0
Точка росы
-1.0
Направление ветра
140
Скорость ветра (узлы)
17
Метео видимость
6.21
Явления погоды
VCSH
Условия полета
MVFR